sensor_id;sensor_type;location;lat;lon;timestamp;temperature;humidity
80220;DHT22;69535;37.974;23.708;2023-05-10T00:02:07;23.80;39.30
80220;DHT22;69535;37.974;23.708;2023-05-10T00:04:33;23.80;39.30
80220;DHT22;69535;37.974;23.708;2023-05-10T00:06:58;23.80;39.20
80220;DHT22;69535;37.974;23.708;2023-05-10T00:09:24;23.90;39.30
80220;DHT22;69535;37.974;23.708;2023-05-10T00:11:50;23.80;39.20
80220;DHT22;69535;37.974;23.708;2023-05-10T00:14:16;23.80;39.30
80220;DHT22;69535;37.974;23.708;2023-05-10T00:16:42;23.80;39.30
80220;DHT22;69535;37.974;23.708;2023-05-10T00:19:07;23.90;40.20
80220;DHT22;69535;37.974;23.708;2023-05-10T00:21:33;23.80;39.30
80220;DHT22;69535;37.974;23.708;2023-05-10T00:23:59;23.90;39.40
80220;DHT22;69535;37.974;23.708;2023-05-10T00:26:25;23.90;39.40
80220;DHT22;69535;37.974;23.708;2023-05-10T00:28:51;23.80;39.30
80220;DHT22;69535;37.974;23.708;2023-05-10T00:31:16;23.90;39.40
80220;DHT22;69535;37.974;23.708;2023-05-10T00:33:42;23.90;39.40
80220;DHT22;69535;37.974;23.708;2023-05-10T00:36:08;23.80;39.30
80220;DHT22;69535;37.974;23.708;2023-05-10T00:38:34;23.80;39.40
80220;DHT22;69535;37.974;23.708;2023-05-10T00:41:00;23.80;39.40
80220;DHT22;69535;37.974;23.708;2023-05-10T00:43:25;23.80;39.40
80220;DHT22;69535;37.974;23.708;2023-05-10T00:45:52;23.80;39.40
80220;DHT22;69535;37.974;23.708;2023-05-10T00:48:18;23.80;39.40
80220;DHT22;69535;37.974;23.708;2023-05-10T00:50:44;23.80;39.40
80220;DHT22;69535;37.974;23.708;2023-05-10T00:53:10;23.80;39.50
80220;DHT22;69535;37.974;23.708;2023-05-10T00:55:36;23.90;39.50
80220;DHT22;69535;37.974;23.708;2023-05-10T00:58:03;23.80;39.40
80220;DHT22;69535;37.974;23.708;2023-05-10T01:00:29;23.80;39.40
80220;DHT22;69535;37.974;23.708;2023-05-10T01:02:55;23.80;39.30
80220;DHT22;69535;37.974;23.708;2023-05-10T01:05:21;23.80;39.30
80220;DHT22;69535;37.974;23.708;2023-05-10T01:07:47;23.80;39.40
80220;DHT22;69535;37.974;23.708;2023-05-10T01:10:13;23.80;39.30
80220;DHT22;69535;37.974;23.708;2023-05-10T01:12:41;23.80;39.30
80220;DHT22;69535;37.974;23.708;2023-05-10T01:15:09;23.80;39.30
80220;DHT22;69535;37.974;23.708;2023-05-10T01:17:38;23.80;39.30
80220;DHT22;69535;37.974;23.708;2023-05-10T01:20:06;23.80;39.20
80220;DHT22;69535;37.974;23.708;2023-05-10T01:22:44;23.80;39.20
80220;DHT22;69535;37.974;23.708;2023-05-10T01:33:26;23.80;39.20
80220;DHT22;69535;37.974;23.708;2023-05-10T01:36:08;23.80;39.20
80220;DHT22;69535;37.974;23.708;2023-05-10T01:41:36;23.80;39.20
80220;DHT22;69535;37.974;23.708;2023-05-10T01:44:35;23.80;39.00
80220;DHT22;69535;37.974;23.708;2023-05-10T01:47:06;23.80;39.10
80220;DHT22;69535;37.974;23.708;2023-05-10T01:49:38;23.70;39.00
80220;DHT22;69535;37.974;23.708;2023-05-10T01:52:14;23.80;39.00
80220;DHT22;69535;37.974;23.708;2023-05-10T01:54:53;23.80;39.00
80220;DHT22;69535;37.974;23.708;2023-05-10T01:57:22;23.70;38.90
80220;DHT22;69535;37.974;23.708;2023-05-10T01:59:51;23.70;38.90
80220;DHT22;69535;37.974;23.708;2023-05-10T02:02:20;23.80;38.90
80220;DHT22;69535;37.974;23.708;2023-05-10T02:04:47;23.80;38.90
80220;DHT22;69535;37.974;23.708;2023-05-10T02:07:15;23.70;38.90
80220;DHT22;69535;37.974;23.708;2023-05-10T02:09:44;23.70;38.80
80220;DHT22;69535;37.974;23.708;2023-05-10T02:12:13;23.80;38.80
80220;DHT22;69535;37.974;23.708;2023-05-10T02:14:41;23.70;38.70
80220;DHT22;69535;37.974;23.708;2023-05-10T02:17:08;23.80;38.80
80220;DHT22;69535;37.974;23.708;2023-05-10T02:19:39;23.80;38.70
80220;DHT22;69535;37.974;23.708;2023-05-10T02:22:06;23.70;38.70
80220;DHT22;69535;37.974;23.708;2023-05-10T02:24:34;23.70;38.70
80220;DHT22;69535;37.974;23.708;2023-05-10T02:27:02;23.70;38.60
80220;DHT22;69535;37.974;23.708;2023-05-10T02:29:29;23.70;38.70
80220;DHT22;69535;37.974;23.708;2023-05-10T02:31:57;23.70;38.60
80220;DHT22;69535;37.974;23.708;2023-05-10T02:34:26;23.80;38.70
80220;DHT22;69535;37.974;23.708;2023-05-10T02:36:53;23.70;38.60
80220;DHT22;69535;37.974;23.708;2023-05-10T02:39:21;23.80;38.70
80220;DHT22;69535;37.974;23.708;2023-05-10T02:41:49;23.80;38.70
80220;DHT22;69535;37.974;23.708;2023-05-10T02:44:18;23.80;38.70
80220;DHT22;69535;37.974;23.708;2023-05-10T02:46:45;23.80;38.70
80220;DHT22;69535;37.974;23.708;2023-05-10T02:49:11;23.70;38.60
80220;DHT22;69535;37.974;23.708;2023-05-10T02:51:44;23.80;38.70
80220;DHT22;69535;37.974;23.708;2023-05-10T02:54:18;23.80;38.60
80220;DHT22;69535;37.974;23.708;2023-05-10T02:56:50;23.80;38.60
80220;DHT22;69535;37.974;23.708;2023-05-10T02:59:16;23.70;38.60
80220;DHT22;69535;37.974;23.708;2023-05-10T03:01:42;23.80;38.60
80220;DHT22;69535;37.974;23.708;2023-05-10T03:04:08;23.80;38.70
80220;DHT22;69535;37.974;23.708;2023-05-10T03:06:33;23.80;38.60
80220;DHT22;69535;37.974;23.708;2023-05-10T03:08:59;23.70;38.50
80220;DHT22;69535;37.974;23.708;2023-05-10T03:11:53;23.80;38.60
80220;DHT22;69535;37.974;23.708;2023-05-10T03:17:10;23.70;38.50
80220;DHT22;69535;37.974;23.708;2023-05-10T03:19:54;23.70;38.50
80220;DHT22;69535;37.974;23.708;2023-05-10T03:22:31;23.70;38.60
80220;DHT22;69535;37.974;23.708;2023-05-10T03:24:58;23.70;38.50
80220;DHT22;69535;37.974;23.708;2023-05-10T03:27:27;23.70;38.50
80220;DHT22;69535;37.974;23.708;2023-05-10T03:29:54;23.70;38.50
80220;DHT22;69535;37.974;23.708;2023-05-10T03:32:20;23.70;38.50
80220;DHT22;69535;37.974;23.708;2023-05-10T03:34:46;23.70;38.40
80220;DHT22;69535;37.974;23.708;2023-05-10T03:37:11;23.70;38.50
80220;DHT22;69535;37.974;23.708;2023-05-10T03:39:37;23.70;38.40
80220;DHT22;69535;37.974;23.708;2023-05-10T03:42:03;23.70;38.40
80220;DHT22;69535;37.974;23.708;2023-05-10T03:44:28;23.70;38.30
80220;DHT22;69535;37.974;23.708;2023-05-10T03:46:54;23.70;38.30
80220;DHT22;69535;37.974;23.708;2023-05-10T03:49:21;23.70;38.30
80220;DHT22;69535;37.974;23.708;2023-05-10T03:51:47;23.70;38.30
80220;DHT22;69535;37.974;23.708;2023-05-10T03:54:12;23.70;38.20
80220;DHT22;69535;37.974;23.708;2023-05-10T03:56:38;23.70;38.20
80220;DHT22;69535;37.974;23.708;2023-05-10T03:59:04;23.70;38.20
80220;DHT22;69535;37.974;23.708;2023-05-10T04:01:33;23.70;38.20
80220;DHT22;69535;37.974;23.708;2023-05-10T04:03:59;23.70;38.20
80220;DHT22;69535;37.974;23.708;2023-05-10T04:06:24;23.70;38.20
80220;DHT22;69535;37.974;23.708;2023-05-10T04:08:50;23.70;38.20
80220;DHT22;69535;37.974;23.708;2023-05-10T04:11:16;23.70;38.10
80220;DHT22;69535;37.974;23.708;2023-05-10T04:13:42;23.70;38.20
80220;DHT22;69535;37.974;23.708;2023-05-10T04:16:08;23.70;38.20
80220;DHT22;69535;37.974;23.708;2023-05-10T04:18:34;23.70;38.10
80220;DHT22;69535;37.974;23.708;2023-05-10T04:21:00;23.70;38.20
80220;DHT22;69535;37.974;23.708;2023-05-10T04:23:27;23.70;38.50
80220;DHT22;69535;37.974;23.708;2023-05-10T04:25:52;23.70;38.70
80220;DHT22;69535;37.974;23.708;2023-05-10T04:28:18;23.70;38.70
80220;DHT22;69535;37.974;23.708;2023-05-10T04:30:44;23.70;38.70
80220;DHT22;69535;37.974;23.708;2023-05-10T04:33:09;23.70;38.70
80220;DHT22;69535;37.974;23.708;2023-05-10T04:35:35;23.70;38.70
80220;DHT22;69535;37.974;23.708;2023-05-10T04:38:01;23.70;38.60
80220;DHT22;69535;37.974;23.708;2023-05-10T04:40:26;23.70;38.60
80220;DHT22;69535;37.974;23.708;2023-05-10T04:42:52;23.70;38.50
80220;DHT22;69535;37.974;23.708;2023-05-10T04:45:18;23.70;38.50
80220;DHT22;69535;37.974;23.708;2023-05-10T04:47:43;23.70;38.40
80220;DHT22;69535;37.974;23.708;2023-05-10T04:50:09;23.70;38.40
80220;DHT22;69535;37.974;23.708;2023-05-10T04:52:35;23.70;38.40
80220;DHT22;69535;37.974;23.708;2023-05-10T04:55:01;23.70;38.30
80220;DHT22;69535;37.974;23.708;2023-05-10T04:57:27;23.70;38.30
80220;DHT22;69535;37.974;23.708;2023-05-10T04:59:53;23.70;38.30
80220;DHT22;69535;37.974;23.708;2023-05-10T05:02:18;23.70;38.20
80220;DHT22;69535;37.974;23.708;2023-05-10T05:04:44;23.70;38.20
80220;DHT22;69535;37.974;23.708;2023-05-10T05:07:10;23.70;38.20
80220;DHT22;69535;37.974;23.708;2023-05-10T05:09:35;23.80;38.20
80220;DHT22;69535;37.974;23.708;2023-05-10T05:12:01;23.80;38.20
80220;DHT22;69535;37.974;23.708;2023-05-10T05:14:27;23.80;38.20
80220;DHT22;69535;37.974;23.708;2023-05-10T05:16:53;23.80;38.10
80220;DHT22;69535;37.974;23.708;2023-05-10T05:19:18;23.80;38.00
80220;DHT22;69535;37.974;23.708;2023-05-10T05:21:44;23.80;38.00
80220;DHT22;69535;37.974;23.708;2023-05-10T05:24:10;23.80;38.00
80220;DHT22;69535;37.974;23.708;2023-05-10T05:26:37;23.90;38.00
80220;DHT22;69535;37.974;23.708;2023-05-10T05:29:03;23.90;37.90
80220;DHT22;69535;37.974;23.708;2023-05-10T05:31:29;23.90;37.80
80220;DHT22;69535;37.974;23.708;2023-05-10T05:33:55;23.90;37.80
80220;DHT22;69535;37.974;23.708;2023-05-10T05:36:21;23.90;37.90
80220;DHT22;69535;37.974;23.708;2023-05-10T05:38:47;23.90;37.80
80220;DHT22;69535;37.974;23.708;2023-05-10T05:41:13;23.90;37.80
80220;DHT22;69535;37.974;23.708;2023-05-10T05:43:38;23.90;37.80
80220;DHT22;69535;37.974;23.708;2023-05-10T05:46:05;24.00;37.80
80220;DHT22;69535;37.974;23.708;2023-05-10T05:48:30;24.00;38.80
80220;DHT22;69535;37.974;23.708;2023-05-10T05:50:57;24.00;38.30
80220;DHT22;69535;37.974;23.708;2023-05-10T05:53:23;24.00;37.80
80220;DHT22;69535;37.974;23.708;2023-05-10T05:55:56;24.00;37.70
80220;DHT22;69535;37.974;23.708;2023-05-10T05:58:23;24.00;37.70
80220;DHT22;69535;37.974;23.708;2023-05-10T06:00:50;24.00;37.70
80220;DHT22;69535;37.974;23.708;2023-05-10T06:03:15;24.00;37.70
80220;DHT22;69535;37.974;23.708;2023-05-10T06:05:41;24.00;37.60
80220;DHT22;69535;37.974;23.708;2023-05-10T06:08:07;24.00;37.60
80220;DHT22;69535;37.974;23.708;2023-05-10T06:10:33;24.00;37.60
80220;DHT22;69535;37.974;23.708;2023-05-10T06:12:58;24.00;37.50
80220;DHT22;69535;37.974;23.708;2023-05-10T06:15:25;24.00;37.50
80220;DHT22;69535;37.974;23.708;2023-05-10T06:17:51;24.00;37.50
80220;DHT22;69535;37.974;23.708;2023-05-10T06:20:17;24.00;37.50
80220;DHT22;69535;37.974;23.708;2023-05-10T06:22:43;24.00;37.50
80220;DHT22;69535;37.974;23.708;2023-05-10T06:25:09;24.00;37.40
80220;DHT22;69535;37.974;23.708;2023-05-10T06:27:35;24.10;37.50
80220;DHT22;69535;37.974;23.708;2023-05-10T06:30:01;24.10;37.40
80220;DHT22;69535;37.974;23.708;2023-05-10T06:32:28;24.10;37.40
80220;DHT22;69535;37.974;23.708;2023-05-10T06:34:53;24.10;37.30
80220;DHT22;69535;37.974;23.708;2023-05-10T06:37:19;24.10;37.30
80220;DHT22;69535;37.974;23.708;2023-05-10T06:39:45;24.10;37.20
80220;DHT22;69535;37.974;23.708;2023-05-10T06:42:11;24.10;37.10
80220;DHT22;69535;37.974;23.708;2023-05-10T06:44:37;24.10;37.10
80220;DHT22;69535;37.974;23.708;2023-05-10T06:47:02;24.10;37.10
80220;DHT22;69535;37.974;23.708;2023-05-10T06:49:28;24.10;37.20
80220;DHT22;69535;37.974;23.708;2023-05-10T06:51:55;24.10;37.10
80220;DHT22;69535;37.974;23.708;2023-05-10T06:54:21;24.10;37.10
80220;DHT22;69535;37.974;23.708;2023-05-10T06:56:47;24.10;37.00
80220;DHT22;69535;37.974;23.708;2023-05-10T06:59:12;24.10;37.10
80220;DHT22;69535;37.974;23.708;2023-05-10T07:01:39;24.20;37.00
80220;DHT22;69535;37.974;23.708;2023-05-10T07:04:05;24.20;37.00
80220;DHT22;69535;37.974;23.708;2023-05-10T07:06:32;24.20;37.00
80220;DHT22;69535;37.974;23.708;2023-05-10T07:08:59;24.20;37.00
80220;DHT22;69535;37.974;23.708;2023-05-10T07:11:24;24.20;36.90
80220;DHT22;69535;37.974;23.708;2023-05-10T07:13:50;24.20;36.90
80220;DHT22;69535;37.974;23.708;2023-05-10T07:16:16;24.20;36.90
80220;DHT22;69535;37.974;23.708;2023-05-10T07:18:41;24.20;36.90
80220;DHT22;69535;37.974;23.708;2023-05-10T07:21:07;24.20;37.00
80220;DHT22;69535;37.974;23.708;2023-05-10T07:23:34;24.20;36.90
80220;DHT22;69535;37.974;23.708;2023-05-10T07:26:00;24.20;36.80
80220;DHT22;69535;37.974;23.708;2023-05-10T07:28:27;24.30;36.90
80220;DHT22;69535;37.974;23.708;2023-05-10T07:30:53;24.30;36.90
80220;DHT22;69535;37.974;23.708;2023-05-10T07:33:18;24.30;36.90
80220;DHT22;69535;37.974;23.708;2023-05-10T07:35:44;24.30;36.90
80220;DHT22;69535;37.974;23.708;2023-05-10T07:38:10;24.30;36.70
80220;DHT22;69535;37.974;23.708;2023-05-10T07:40:39;24.30;36.70
80220;DHT22;69535;37.974;23.708;2023-05-10T07:43:05;24.30;36.70
80220;DHT22;69535;37.974;23.708;2023-05-10T07:45:31;24.30;36.70
80220;DHT22;69535;37.974;23.708;2023-05-10T07:47:56;24.30;36.80
80220;DHT22;69535;37.974;23.708;2023-05-10T07:50:22;24.30;36.70
80220;DHT22;69535;37.974;23.708;2023-05-10T07:52:48;24.30;36.70
80220;DHT22;69535;37.974;23.708;2023-05-10T07:55:14;24.30;36.70
80220;DHT22;69535;37.974;23.708;2023-05-10T07:57:40;24.30;36.80
80220;DHT22;69535;37.974;23.708;2023-05-10T08:00:06;24.30;36.70
80220;DHT22;69535;37.974;23.708;2023-05-10T08:02:34;24.30;36.80
80220;DHT22;69535;37.974;23.708;2023-05-10T08:05:00;24.30;36.80
80220;DHT22;69535;37.974;23.708;2023-05-10T08:07:26;24.30;36.70
80220;DHT22;69535;37.974;23.708;2023-05-10T08:09:51;24.30;36.70
80220;DHT22;69535;37.974;23.708;2023-05-10T08:12:17;24.20;36.80
80220;DHT22;69535;37.974;23.708;2023-05-10T08:14:42;24.30;36.80
80220;DHT22;69535;37.974;23.708;2023-05-10T08:17:08;24.30;36.70
80220;DHT22;69535;37.974;23.708;2023-05-10T08:19:34;24.30;36.70
80220;DHT22;69535;37.974;23.708;2023-05-10T08:22:00;24.30;36.70
80220;DHT22;69535;37.974;23.708;2023-05-10T08:24:26;24.30;36.70
80220;DHT22;69535;37.974;23.708;2023-05-10T08:26:51;24.30;36.60
80220;DHT22;69535;37.974;23.708;2023-05-10T08:29:17;24.30;36.50
80220;DHT22;69535;37.974;23.708;2023-05-10T08:31:43;24.30;36.50
80220;DHT22;69535;37.974;23.708;2023-05-10T08:34:08;24.30;36.40
80220;DHT22;69535;37.974;23.708;2023-05-10T08:36:34;24.30;36.40
80220;DHT22;69535;37.974;23.708;2023-05-10T08:39:00;24.30;36.40
80220;DHT22;69535;37.974;23.708;2023-05-10T08:41:26;24.30;36.40
80220;DHT22;69535;37.974;23.708;2023-05-10T08:43:55;24.30;36.40
80220;DHT22;69535;37.974;23.708;2023-05-10T08:46:22;24.30;36.40
80220;DHT22;69535;37.974;23.708;2023-05-10T08:48:50;24.30;36.30
80220;DHT22;69535;37.974;23.708;2023-05-10T08:51:21;24.30;36.40
80220;DHT22;69535;37.974;23.708;2023-05-10T08:53:47;24.30;36.40
80220;DHT22;69535;37.974;23.708;2023-05-10T08:56:13;24.30;36.40
80220;DHT22;69535;37.974;23.708;2023-05-10T08:58:41;24.20;36.40
80220;DHT22;69535;37.974;23.708;2023-05-10T09:01:07;24.20;36.30
80220;DHT22;69535;37.974;23.708;2023-05-10T09:03:34;24.20;36.30
80220;DHT22;69535;37.974;23.708;2023-05-10T09:06:00;24.20;36.40
80220;DHT22;69535;37.974;23.708;2023-05-10T09:08:26;24.30;36.40
80220;DHT22;69535;37.974;23.708;2023-05-10T09:10:54;24.20;36.30
80220;DHT22;69535;37.974;23.708;2023-05-10T09:13:21;24.30;36.40
80220;DHT22;69535;37.974;23.708;2023-05-10T09:15:48;24.30;36.30
80220;DHT22;69535;37.974;23.708;2023-05-10T09:18:14;24.30;36.40
80220;DHT22;69535;37.974;23.708;2023-05-10T09:20:40;24.30;36.30
80220;DHT22;69535;37.974;23.708;2023-05-10T09:23:06;24.30;36.30
80220;DHT22;69535;37.974;23.708;2023-05-10T09:25:32;24.30;36.30
80220;DHT22;69535;37.974;23.708;2023-05-10T09:28:06;24.30;36.30
80220;DHT22;69535;37.974;23.708;2023-05-10T09:30:33;24.30;36.30
80220;DHT22;69535;37.974;23.708;2023-05-10T09:32:59;24.30;36.30
80220;DHT22;69535;37.974;23.708;2023-05-10T09:35:27;24.30;36.20
80220;DHT22;69535;37.974;23.708;2023-05-10T09:37:54;24.30;36.20
80220;DHT22;69535;37.974;23.708;2023-05-10T09:40:24;24.30;36.20
80220;DHT22;69535;37.974;23.708;2023-05-10T09:43:09;24.30;36.10
80220;DHT22;69535;37.974;23.708;2023-05-10T09:45:36;24.30;36.00
80220;DHT22;69535;37.974;23.708;2023-05-10T09:48:23;24.30;36.10
80220;DHT22;69535;37.974;23.708;2023-05-10T09:50:56;24.30;36.10
80220;DHT22;69535;37.974;23.708;2023-05-10T09:53:22;24.30;36.00
80220;DHT22;69535;37.974;23.708;2023-05-10T09:55:48;24.30;36.10
80220;DHT22;69535;37.974;23.708;2023-05-10T09:58:15;24.30;36.10
80220;DHT22;69535;37.974;23.708;2023-05-10T10:00:46;24.30;36.00
80220;DHT22;69535;37.974;23.708;2023-05-10T10:03:17;24.30;36.00
80220;DHT22;69535;37.974;23.708;2023-05-10T10:05:44;24.30;36.00
80220;DHT22;69535;37.974;23.708;2023-05-10T10:08:10;24.30;36.00
80220;DHT22;69535;37.974;23.708;2023-05-10T10:10:37;24.30;36.00
80220;DHT22;69535;37.974;23.708;2023-05-10T10:13:05;24.30;36.00
80220;DHT22;69535;37.974;23.708;2023-05-10T10:15:33;24.30;35.90
80220;DHT22;69535;37.974;23.708;2023-05-10T10:17:59;24.30;35.90
80220;DHT22;69535;37.974;23.708;2023-05-10T10:20:27;24.30;35.90
80220;DHT22;69535;37.974;23.708;2023-05-10T10:22:52;24.30;35.90
80220;DHT22;69535;37.974;23.708;2023-05-10T10:25:19;24.30;35.90
80220;DHT22;69535;37.974;23.708;2023-05-10T10:35:55;24.30;35.80
80220;DHT22;69535;37.974;23.708;2023-05-10T10:38:23;24.30;35.80
80220;DHT22;69535;37.974;23.708;2023-05-10T10:41:02;24.30;35.80
80220;DHT22;69535;37.974;23.708;2023-05-10T10:43:28;24.30;35.70
80220;DHT22;69535;37.974;23.708;2023-05-10T10:46:16;24.30;35.70
80220;DHT22;69535;37.974;23.708;2023-05-10T10:48:52;24.30;35.70
80220;DHT22;69535;37.974;23.708;2023-05-10T10:51:37;24.30;35.80
80220;DHT22;69535;37.974;23.708;2023-05-10T10:54:10;24.30;35.90
80220;DHT22;69535;37.974;23.708;2023-05-10T10:56:36;24.30;35.90
80220;DHT22;69535;37.974;23.708;2023-05-10T10:59:01;24.30;35.90
80220;DHT22;69535;37.974;23.708;2023-05-10T11:01:33;24.30;36.00
80220;DHT22;69535;37.974;23.708;2023-05-10T11:06:35;24.30;36.00
80220;DHT22;69535;37.974;23.708;2023-05-10T11:09:08;24.30;36.20
80220;DHT22;69535;37.974;23.708;2023-05-10T11:11:49;24.30;36.10
80220;DHT22;69535;37.974;23.708;2023-05-10T11:14:20;24.30;36.20
80220;DHT22;69535;37.974;23.708;2023-05-10T11:16:46;24.30;36.10
80220;DHT22;69535;37.974;23.708;2023-05-10T11:19:13;24.30;36.20
80220;DHT22;69535;37.974;23.708;2023-05-10T11:24:31;24.30;36.30
80220;DHT22;69535;37.974;23.708;2023-05-10T11:26:57;24.30;36.40
80220;DHT22;69535;37.974;23.708;2023-05-10T11:29:23;24.30;36.30
80220;DHT22;69535;37.974;23.708;2023-05-10T11:31:51;24.30;36.40
80220;DHT22;69535;37.974;23.708;2023-05-10T11:36:54;24.30;36.40
80220;DHT22;69535;37.974;23.708;2023-05-10T11:39:21;24.30;36.40
80220;DHT22;69535;37.974;23.708;2023-05-10T11:41:50;24.30;36.50
80220;DHT22;69535;37.974;23.708;2023-05-10T11:44:16;24.30;36.60
80220;DHT22;69535;37.974;23.708;2023-05-10T11:46:41;24.30;36.70
80220;DHT22;69535;37.974;23.708;2023-05-10T11:49:07;24.30;36.70
80220;DHT22;69535;37.974;23.708;2023-05-10T11:51:34;24.30;36.80
80220;DHT22;69535;37.974;23.708;2023-05-10T11:54:08;24.30;36.70
80220;DHT22;69535;37.974;23.708;2023-05-10T11:56:34;24.30;36.80
80220;DHT22;69535;37.974;23.708;2023-05-10T11:59:00;24.30;36.90
80220;DHT22;69535;37.974;23.708;2023-05-10T12:01:28;24.30;36.90
80220;DHT22;69535;37.974;23.708;2023-05-10T12:03:57;24.30;37.00
80220;DHT22;69535;37.974;23.708;2023-05-10T12:06:30;24.30;37.10
80220;DHT22;69535;37.974;23.708;2023-05-10T12:08:57;24.30;37.10
80220;DHT22;69535;37.974;23.708;2023-05-10T12:11:27;24.30;37.10
80220;DHT22;69535;37.974;23.708;2023-05-10T12:13:54;24.30;37.10
80220;DHT22;69535;37.974;23.708;2023-05-10T12:16:22;24.30;37.10
80220;DHT22;69535;37.974;23.708;2023-05-10T12:18:52;24.30;37.10
80220;DHT22;69535;37.974;23.708;2023-05-10T12:21:22;24.30;37.20
80220;DHT22;69535;37.974;23.708;2023-05-10T12:23:52;24.40;37.20
80220;DHT22;69535;37.974;23.708;2023-05-10T12:26:22;24.30;37.10
80220;DHT22;69535;37.974;23.708;2023-05-10T12:28:48;24.40;37.20
80220;DHT22;69535;37.974;23.708;2023-05-10T12:31:13;24.30;37.20
80220;DHT22;69535;37.974;23.708;2023-05-10T12:33:41;24.30;37.20
80220;DHT22;69535;37.974;23.708;2023-05-10T12:36:09;24.30;37.20
80220;DHT22;69535;37.974;23.708;2023-05-10T12:38:45;24.30;37.20
80220;DHT22;69535;37.974;23.708;2023-05-10T12:41:15;24.30;37.20
80220;DHT22;69535;37.974;23.708;2023-05-10T12:43:42;24.30;37.20
80220;DHT22;69535;37.974;23.708;2023-05-10T12:46:11;24.40;37.30
80220;DHT22;69535;37.974;23.708;2023-05-10T12:48:38;24.30;37.30
80220;DHT22;69535;37.974;23.708;2023-05-10T12:51:05;24.30;37.40
80220;DHT22;69535;37.974;23.708;2023-05-10T12:53:34;24.30;37.40
80220;DHT22;69535;37.974;23.708;2023-05-10T12:55:59;24.30;37.40
80220;DHT22;69535;37.974;23.708;2023-05-10T12:58:25;24.30;38.20
80220;DHT22;69535;37.974;23.708;2023-05-10T13:00:51;24.30;37.40
80220;DHT22;69535;37.974;23.708;2023-05-10T13:03:17;24.30;37.40
80220;DHT22;69535;37.974;23.708;2023-05-10T13:05:43;24.30;37.40
80220;DHT22;69535;37.974;23.708;2023-05-10T13:08:09;24.30;37.50
80220;DHT22;69535;37.974;23.708;2023-05-10T13:10:35;24.30;37.50
80220;DHT22;69535;37.974;23.708;2023-05-10T13:13:01;24.30;37.50
80220;DHT22;69535;37.974;23.708;2023-05-10T13:15:27;24.30;37.50
80220;DHT22;69535;37.974;23.708;2023-05-10T13:17:53;24.30;37.50
80220;DHT22;69535;37.974;23.708;2023-05-10T13:20:19;24.30;37.60
80220;DHT22;69535;37.974;23.708;2023-05-10T13:22:46;24.30;37.60
80220;DHT22;69535;37.974;23.708;2023-05-10T13:25:12;24.30;37.60
80220;DHT22;69535;37.974;23.708;2023-05-10T13:27:39;24.30;37.50
80220;DHT22;69535;37.974;23.708;2023-05-10T13:30:05;24.30;37.60
80220;DHT22;69535;37.974;23.708;2023-05-10T13:32:31;24.30;37.60
80220;DHT22;69535;37.974;23.708;2023-05-10T13:34:56;24.30;37.60
80220;DHT22;69535;37.974;23.708;2023-05-10T13:37:22;24.30;37.70
80220;DHT22;69535;37.974;23.708;2023-05-10T13:39:48;24.30;37.70
80220;DHT22;69535;37.974;23.708;2023-05-10T13:42:14;24.30;37.70
80220;DHT22;69535;37.974;23.708;2023-05-10T13:44:39;24.30;37.70
80220;DHT22;69535;37.974;23.708;2023-05-10T13:47:06;24.30;37.80
80220;DHT22;69535;37.974;23.708;2023-05-10T13:49:32;24.30;37.80
80220;DHT22;69535;37.974;23.708;2023-05-10T13:51:59;24.20;37.70
80220;DHT22;69535;37.974;23.708;2023-05-10T13:54:31;24.30;37.80
80220;DHT22;69535;37.974;23.708;2023-05-10T13:56:57;24.30;37.90
80220;DHT22;69535;37.974;23.708;2023-05-10T13:59:23;24.30;37.80
80220;DHT22;69535;37.974;23.708;2023-05-10T14:01:48;24.30;37.90
80220;DHT22;69535;37.974;23.708;2023-05-10T14:04:14;24.30;37.90
80220;DHT22;69535;37.974;23.708;2023-05-10T14:06:40;24.30;38.80
80220;DHT22;69535;37.974;23.708;2023-05-10T14:09:05;24.30;38.00
80220;DHT22;69535;37.974;23.708;2023-05-10T14:11:31;24.30;37.90
80220;DHT22;69535;37.974;23.708;2023-05-10T14:13:57;24.30;38.00
80220;DHT22;69535;37.974;23.708;2023-05-10T14:16:23;24.20;38.00
80220;DHT22;69535;37.974;23.708;2023-05-10T14:18:49;24.20;38.00
80220;DHT22;69535;37.974;23.708;2023-05-10T14:21:15;24.20;38.00
80220;DHT22;69535;37.974;23.708;2023-05-10T14:23:40;24.20;38.00
80220;DHT22;69535;37.974;23.708;2023-05-10T14:26:06;24.20;38.10
80220;DHT22;69535;37.974;23.708;2023-05-10T14:28:32;24.20;38.00
80220;DHT22;69535;37.974;23.708;2023-05-10T14:30:58;24.20;38.10
80220;DHT22;69535;37.974;23.708;2023-05-10T14:33:24;24.20;38.10
80220;DHT22;69535;37.974;23.708;2023-05-10T14:35:50;24.20;38.10
80220;DHT22;69535;37.974;23.708;2023-05-10T14:38:16;24.20;38.00
80220;DHT22;69535;37.974;23.708;2023-05-10T14:40:42;24.20;38.10
80220;DHT22;69535;37.974;23.708;2023-05-10T14:43:08;24.20;38.10
80220;DHT22;69535;37.974;23.708;2023-05-10T14:45:34;24.20;38.10
80220;DHT22;69535;37.974;23.708;2023-05-10T14:48:00;24.20;38.10
80220;DHT22;69535;37.974;23.708;2023-05-10T14:50:26;24.20;38.20
80220;DHT22;69535;37.974;23.708;2023-05-10T14:52:52;24.20;38.10
80220;DHT22;69535;37.974;23.708;2023-05-10T14:55:17;24.20;38.10
80220;DHT22;69535;37.974;23.708;2023-05-10T14:57:44;24.20;38.10
80220;DHT22;69535;37.974;23.708;2023-05-10T15:00:12;24.20;38.10
80220;DHT22;69535;37.974;23.708;2023-05-10T15:02:38;24.20;38.20
80220;DHT22;69535;37.974;23.708;2023-05-10T15:05:04;24.20;38.10
80220;DHT22;69535;37.974;23.708;2023-05-10T15:07:29;24.20;38.20
80220;DHT22;69535;37.974;23.708;2023-05-10T15:09:56;24.20;38.20
80220;DHT22;69535;37.974;23.708;2023-05-10T15:12:22;24.20;38.20
80220;DHT22;69535;37.974;23.708;2023-05-10T15:14:48;24.20;38.20
80220;DHT22;69535;37.974;23.708;2023-05-10T15:17:13;24.20;38.20
80220;DHT22;69535;37.974;23.708;2023-05-10T15:19:39;24.20;38.20
80220;DHT22;69535;37.974;23.708;2023-05-10T15:22:05;24.20;38.20
80220;DHT22;69535;37.974;23.708;2023-05-10T15:24:31;24.20;38.20
80220;DHT22;69535;37.974;23.708;2023-05-10T15:26:57;24.20;38.20
80220;DHT22;69535;37.974;23.708;2023-05-10T15:29:22;24.10;38.20
80220;DHT22;69535;37.974;23.708;2023-05-10T15:31:51;24.20;38.20
80220;DHT22;69535;37.974;23.708;2023-05-10T15:34:17;24.20;38.20
80220;DHT22;69535;37.974;23.708;2023-05-10T15:36:46;24.20;38.20
80220;DHT22;69535;37.974;23.708;2023-05-10T15:39:12;24.20;38.30
80220;DHT22;69535;37.974;23.708;2023-05-10T15:41:38;24.20;38.20
80220;DHT22;69535;37.974;23.708;2023-05-10T15:44:03;24.20;38.20
80220;DHT22;69535;37.974;23.708;2023-05-10T15:46:30;24.20;38.20